Airfield :
LOGIN :

Register | Disclaimer

   EN    FR    IT 

 










Legend :    VFR   Marginal VFR   IFR   Intensive IFR   Very Intensive IFR
Visi :
Ceiling :
>= 8 km
>= 3000ft
5 to 8 km
1000 to 3000 ft
1500m to 5 km
500 to 1000 ft
800 to 1500m
200 to 500 ft
< 800m
< 200 ft
Symbols :   Thunderstorms  Fog  Heavy snow  Heavy precipitations  Wind > 20 kt
SIGMETs :     Misc.  Thunderstorms  Icing  Turbulence  Mountain Waves  Volcanic Ashes







- Airport Elevation : 978 ft
- IATA code : LNZ


LOWL - Linz

CURRENT METAR :
  • 201650Z 10007KT 9999 FEW012 01/M01 Q1008 NOSIG

EXPIRED METARs :
  • 201620Z 10009KT 9999 FEW014 02/M01 Q1007 NOSIG
  • 201550Z 10010KT 9999 FEW014 02/M01 Q1007 NOSIG
  • 201520Z 10013KT 9999 FEW022 02/M01 Q1007 NOSIG
  • 201450Z 10014KT 9999 FEW022 03/M01 Q1007 NOSIG
  • 201420Z 09017KT 9999 FEW024 04/M00 Q1007 NOSIG

TAF TAF LOWL
Valid from the 20 at 12:00 until the 21 at 12:00 UTC


201115Z 2012/2112 08020G30KT 9999 FEW030 SCT140 TX04/2112Z TN01/2019Z
BECMG 2012/2015 10012KT
BECMG 2018/2021 12004KT BKN014
TEMPO 2021/2110 OVC008
PROB30 2104/2108 4000 BR OVC004
No reported NOTAMs for that airfield.



MET'MAP, your aeronautical weather chart ! - Copyright ORBIFLY December 2007 - Disclaimer

ORBIFLY MET'MAP TEAM :

Programming & Development : Alexandra Zaïnal
Concept & Development : Baudouin d'Aumeries
Co-Development & Prog : Marc-Olivier Méhu
Technical & hardware support : Manuel Goepfert

Contact : metmap@orbifly.com




SOURCES & CREDITS :

   NOAA